createdAt,value
2023-05-16T04:02:31.801Z,1.88
2023-05-16T04:04:58.626Z,2.55
2023-05-16T04:07:25.677Z,2.40
2023-05-16T04:09:52.456Z,1.83
2023-05-16T04:12:19.139Z,1.90
2023-05-16T04:14:45.834Z,2.65
2023-05-16T04:17:12.889Z,1.80
2023-05-16T04:19:39.640Z,1.77
2023-05-16T04:22:06.401Z,2.50
2023-05-16T04:24:33.354Z,2.63
2023-05-16T04:27:00.144Z,2.95
2023-05-16T04:29:29.692Z,2.65
2023-05-16T04:31:56.544Z,2.92
2023-05-16T04:34:27.796Z,2.17
2023-05-16T04:36:55.500Z,1.95
2023-05-16T04:39:22.369Z,2.63
2023-05-16T04:41:49.064Z,3.10
2023-05-16T04:44:15.811Z,1.92
2023-05-16T04:46:42.945Z,4.35
2023-05-16T04:49:11.250Z,2.60
2023-05-16T04:51:37.964Z,3.05
2023-05-16T04:54:04.783Z,3.03
2023-05-16T04:56:31.940Z,1.77
2023-05-16T04:58:58.655Z,2.58
2023-05-16T05:01:25.368Z,1.88
2023-05-16T05:03:52.220Z,2.85
2023-05-16T05:06:18.915Z,3.03
2023-05-16T05:08:45.582Z,2.50
2023-05-16T05:11:12.249Z,4.00
2023-05-16T05:13:38.906Z,2.47
2023-05-16T05:16:06.090Z,2.22
2023-05-16T05:18:33.007Z,2.22
2023-05-16T05:21:00.019Z,2.20
2023-05-16T05:23:26.818Z,2.83
2023-05-16T05:25:53.896Z,2.50
2023-05-16T05:28:20.612Z,2.55
2023-05-16T05:30:48.390Z,2.45
2023-05-16T05:33:18.953Z,2.22
2023-05-16T05:35:45.835Z,2.47
2023-05-16T05:38:12.493Z,1.90
2023-05-16T05:40:39.252Z,1.65
2023-05-16T05:43:06.490Z,2.65
2023-05-16T05:45:33.319Z,2.45
2023-05-16T05:48:00.120Z,2.28
2023-05-16T05:50:26.915Z,2.42
2023-05-16T05:52:53.871Z,1.95
2023-05-16T05:55:20.822Z,2.10
2023-05-16T05:57:47.624Z,2.22
2023-05-16T06:00:16.210Z,2.80
2023-05-16T06:02:43.062Z,1.92
2023-05-16T06:05:09.988Z,1.80
2023-05-16T06:07:36.741Z,2.03
2023-05-16T06:10:05.469Z,2.10
2023-05-16T06:12:32.254Z,1.77
2023-05-16T06:14:59.117Z,1.73
2023-05-16T06:17:25.819Z,2.85
2023-05-16T06:19:52.594Z,1.90
2023-05-16T06:22:19.240Z,2.00
2023-05-16T06:24:46.068Z,1.83
2023-05-16T06:27:12.994Z,1.27
2023-05-16T06:29:39.904Z,1.70
2023-05-16T06:32:06.999Z,2.05
2023-05-16T06:34:33.760Z,2.38
2023-05-16T06:37:00.848Z,1.98
2023-05-16T06:39:27.582Z,1.83
2023-05-16T06:41:56.384Z,1.55
2023-05-16T06:44:23.862Z,1.25
2023-05-16T06:46:50.652Z,2.22
2023-05-16T06:49:17.680Z,2.38
2023-05-16T06:51:44.671Z,1.92
2023-05-16T06:54:11.496Z,1.30
2023-05-16T06:56:40.503Z,1.27
2023-05-16T06:59:07.253Z,1.40
2023-05-16T07:01:34.152Z,1.08
2023-05-16T07:04:01.176Z,1.17
2023-05-16T07:06:27.987Z,0.80
2023-05-16T07:08:54.704Z,1.25
2023-05-16T07:11:21.459Z,2.42
2023-05-16T07:13:50.157Z,2.17
2023-05-16T07:16:17.241Z,2.13
2023-05-16T07:18:44.047Z,1.58
2023-05-16T07:21:11.662Z,1.35
2023-05-16T07:23:38.403Z,1.35
2023-05-16T07:26:07.637Z,1.20
2023-05-16T07:28:39.285Z,1.10
2023-05-16T07:31:07.547Z,1.73
2023-05-16T07:33:34.453Z,1.60
2023-05-16T07:36:15.553Z,1.25
2023-05-16T07:38:43.574Z,1.27
2023-05-16T07:41:10.357Z,1.27
2023-05-16T07:43:37.293Z,1.50
2023-05-16T07:46:05.091Z,1.92
2023-05-16T07:48:32.001Z,1.55
2023-05-16T07:50:58.917Z,1.77
2023-05-16T07:53:25.776Z,1.67
2023-05-16T07:55:52.610Z,2.28
2023-05-16T07:58:19.824Z,1.00
2023-05-16T08:00:47.089Z,2.20
2023-05-16T08:03:14.033Z,2.33
2023-05-16T08:05:41.008Z,1.20
2023-05-16T08:08:07.879Z,1.10
2023-05-16T08:10:34.596Z,1.25
2023-05-16T08:13:01.412Z,1.17
2023-05-16T08:15:28.668Z,1.58
2023-05-16T08:17:57.833Z,0.90
2023-05-16T08:20:25.466Z,1.80
2023-05-16T08:22:52.454Z,1.05
2023-05-16T08:25:19.530Z,0.80
2023-05-16T08:27:47.161Z,0.90
2023-05-16T08:30:14.388Z,1.02
2023-05-16T08:32:41.561Z,1.10
2023-05-16T08:35:08.635Z,1.23
2023-05-16T08:37:35.405Z,1.48
2023-05-16T08:40:02.190Z,1.85
2023-05-16T08:42:29.586Z,1.30
2023-05-16T08:44:56.337Z,2.30
2023-05-16T08:47:26.890Z,0.90
2023-05-16T08:49:57.384Z,1.35
2023-05-16T08:52:31.734Z,1.25
2023-05-16T08:55:10.781Z,0.80
2023-05-16T08:57:38.997Z,0.95
2023-05-16T09:00:13.055Z,1.05
2023-05-16T09:02:41.652Z,0.98
2023-05-16T09:05:10.928Z,0.88
2023-05-16T09:07:37.735Z,0.85
2023-05-16T09:10:06.993Z,0.93
2023-05-16T09:12:35.739Z,0.88
2023-05-16T09:15:03.746Z,1.05
2023-05-16T09:17:39.871Z,0.88
2023-05-16T09:20:14.345Z,0.90
2023-05-16T09:22:51.069Z,1.33
2023-05-16T09:25:28.496Z,1.63
2023-05-16T09:27:58.861Z,1.45
2023-05-16T09:30:31.473Z,1.42
2023-05-16T09:32:59.115Z,0.65
2023-05-16T09:37:56.891Z,1.00
2023-05-16T09:40:24.608Z,1.30
2023-05-16T09:43:04.867Z,1.10
2023-05-16T09:45:36.781Z,0.98
2023-05-16T09:48:09.341Z,0.80
2023-05-16T09:53:04.244Z,0.88
2023-05-16T09:55:32.211Z,1.20
2023-05-16T09:57:59.018Z,0.82
2023-05-16T10:00:33.317Z,0.82
2023-05-16T10:03:05.157Z,0.95
2023-05-16T10:08:01.257Z,1.15
2023-05-16T10:10:28.593Z,1.17
2023-05-16T10:13:01.352Z,1.30
2023-05-16T10:15:29.461Z,0.88
2023-05-16T10:17:59.890Z,1.20
2023-05-16T10:20:27.439Z,0.80
2023-05-16T10:22:56.770Z,1.05
2023-05-16T10:25:26.513Z,1.10
2023-05-16T10:27:54.281Z,1.08
2023-05-16T10:30:22.146Z,0.70
2023-05-16T10:32:52.040Z,0.65
2023-05-16T10:35:20.967Z,1.00
2023-05-16T10:37:49.653Z,1.10
2023-05-16T10:40:17.312Z,1.33
2023-05-16T10:43:01.978Z,2.08
2023-05-16T10:45:29.268Z,0.73
2023-05-16T10:48:10.033Z,1.67
2023-05-16T10:50:45.633Z,1.30
2023-05-16T10:53:23.423Z,1.02
2023-05-16T10:56:00.085Z,1.10
2023-05-16T10:58:38.945Z,1.33
2023-05-16T11:01:24.810Z,1.00
2023-05-16T11:03:58.215Z,0.98
2023-05-16T11:06:32.754Z,1.35
2023-05-16T11:09:05.530Z,1.08
2023-05-16T11:11:49.456Z,1.38
2023-05-16T11:14:47.824Z,0.98
2023-05-16T11:17:16.532Z,0.98
2023-05-16T11:19:49.270Z,1.05
2023-05-16T11:22:41.035Z,0.70
2023-05-16T11:25:09.636Z,1.60
2023-05-16T11:27:47.740Z,1.05
2023-05-16T11:30:17.682Z,1.23
2023-05-16T11:32:45.881Z,0.90
2023-05-16T11:35:15.378Z,1.02
2023-05-16T11:37:43.314Z,1.08
2023-05-16T11:40:12.556Z,0.98
2023-05-16T11:42:47.676Z,0.98
2023-05-16T11:45:19.175Z,1.13
2023-05-16T11:47:48.132Z,0.90
2023-05-16T11:50:19.705Z,1.02
2023-05-16T11:52:53.449Z,1.00
2023-05-16T11:55:40.371Z,0.75
2023-05-16T11:58:10.008Z,0.95
2023-05-16T12:00:36.764Z,1.40
2023-05-16T12:03:06.367Z,1.60
2023-05-16T12:05:35.048Z,0.85
2023-05-16T12:08:02.783Z,1.70
2023-05-16T12:10:31.881Z,1.48
2023-05-16T12:12:58.950Z,2.15
2023-05-16T12:15:26.294Z,1.50
2023-05-16T12:17:53.940Z,1.20
2023-05-16T12:20:20.800Z,1.65
2023-05-16T12:22:47.589Z,0.95
2023-05-16T12:25:32.097Z,1.00
2023-05-16T12:28:04.073Z,0.90
2023-05-16T12:30:32.615Z,0.85
2023-05-16T12:33:07.888Z,1.10
2023-05-16T12:35:37.492Z,0.93
2023-05-16T12:38:05.970Z,0.90
2023-05-16T12:40:33.293Z,0.60
2023-05-16T12:43:00.386Z,0.77
2023-05-16T12:45:28.227Z,1.45
2023-05-16T12:47:55.356Z,1.27
2023-05-16T12:50:22.996Z,1.33
2023-05-16T12:52:54.515Z,1.00
2023-05-16T12:55:22.904Z,1.20
2023-05-16T12:57:51.191Z,0.85
2023-05-16T13:00:20.311Z,1.42
2023-05-16T13:02:48.745Z,1.00
2023-05-16T13:05:16.527Z,1.42
2023-05-16T13:07:43.752Z,1.00
2023-05-16T13:10:11.741Z,0.63
2023-05-16T13:12:39.711Z,1.15
2023-05-16T13:15:08.025Z,1.08
2023-05-16T13:17:35.831Z,1.20
2023-05-16T13:20:09.842Z,1.27
2023-05-16T13:22:37.211Z,0.50
2023-05-16T13:25:04.772Z,1.20
2023-05-16T13:27:32.115Z,1.10
2023-05-16T13:29:59.209Z,1.27
2023-05-16T13:32:26.077Z,1.23
2023-05-16T13:34:53.153Z,1.88
2023-05-16T13:37:19.902Z,1.40
2023-05-16T13:39:46.707Z,0.90
2023-05-16T13:42:13.690Z,1.02
2023-05-16T13:44:40.389Z,1.13
2023-05-16T13:47:07.188Z,0.90
2023-05-16T13:49:34.099Z,1.33
2023-05-16T13:52:01.642Z,1.20
2023-05-16T13:54:28.453Z,1.45
2023-05-16T13:56:55.494Z,1.50
2023-05-16T13:59:44.904Z,1.58
2023-05-16T14:02:08.948Z,1.15
2023-05-16T14:04:35.859Z,1.50
2023-05-16T14:07:03.202Z,1.20
2023-05-16T14:09:29.885Z,1.15
2023-05-16T14:11:56.603Z,1.55
2023-05-16T14:14:23.327Z,1.75
2023-05-16T14:16:50.214Z,1.60
2023-05-16T14:19:19.085Z,1.17
2023-05-16T14:21:46.409Z,1.13
2023-05-16T14:24:13.232Z,1.50
2023-05-16T14:26:39.963Z,1.90
2023-05-16T14:29:06.807Z,1.45
2023-05-16T14:31:33.810Z,1.63
2023-05-16T14:34:00.691Z,2.10
2023-05-16T14:36:27.486Z,2.00
2023-05-16T14:38:54.210Z,1.58
2023-05-16T14:41:21.310Z,1.77
2023-05-16T14:43:48.113Z,1.73
2023-05-16T14:46:15.106Z,1.90
2023-05-16T14:48:41.842Z,1.85
2023-05-16T14:51:08.758Z,1.70
2023-05-16T14:53:35.555Z,1.60
2023-05-16T14:56:03.759Z,1.77
2023-05-16T14:58:31.183Z,1.98
2023-05-16T15:00:58.006Z,1.90
2023-05-16T15:03:24.915Z,2.08
2023-05-16T15:05:52.721Z,1.67
2023-05-16T15:08:19.578Z,1.73
2023-05-16T15:10:46.407Z,2.10
2023-05-16T15:13:13.272Z,1.70
2023-05-16T15:15:40.057Z,1.92
2023-05-16T15:18:06.917Z,2.00
2023-05-16T15:20:33.705Z,2.75
2023-05-16T15:23:00.629Z,2.72
2023-05-16T15:25:28.073Z,2.22
2023-05-16T15:27:55.399Z,1.90
2023-05-16T15:30:22.418Z,1.95
2023-05-16T15:32:49.363Z,2.15
2023-05-16T15:35:16.421Z,3.03
2023-05-16T15:37:43.881Z,2.53
2023-05-16T15:40:11.505Z,2.38
2023-05-16T15:42:38.318Z,2.17
2023-05-16T15:45:06.007Z,2.38
2023-05-16T15:47:33.005Z,2.95
2023-05-16T15:49:59.846Z,2.60
2023-05-16T15:52:26.655Z,2.90
2023-05-16T15:54:53.451Z,2.45
2023-05-16T15:57:20.292Z,2.45
2023-05-16T15:59:47.033Z,3.28
2023-05-16T16:02:13.863Z,2.78
2023-05-16T16:04:40.857Z,3.25
2023-05-16T16:07:07.621Z,2.55
2023-05-16T16:09:34.392Z,3.30
2023-05-16T16:12:01.358Z,2.53
2023-05-16T16:14:28.390Z,3.03
2023-05-16T16:16:55.091Z,2.65
2023-05-16T16:19:21.954Z,2.97
2023-05-16T16:21:49.223Z,2.90
2023-05-16T16:24:16.024Z,3.13
2023-05-16T16:26:43.684Z,2.63
2023-05-16T16:29:10.489Z,2.85
2023-05-16T16:31:37.617Z,2.90
2023-05-16T16:34:04.510Z,3.30
2023-05-16T16:36:43.616Z,3.08
2023-05-16T16:39:10.557Z,3.20
2023-05-16T16:41:37.491Z,3.13
2023-05-16T16:44:04.520Z,3.40
2023-05-16T16:46:31.347Z,2.85
2023-05-16T16:48:58.088Z,3.38
2023-05-16T16:51:24.905Z,3.28
2023-05-16T16:53:51.651Z,3.30
2023-05-16T16:56:18.382Z,3.42
2023-05-16T16:58:45.252Z,2.60
2023-05-16T17:01:12.870Z,3.33
2023-05-16T17:03:40.820Z,2.92
2023-05-16T17:06:08.069Z,3.03
2023-05-16T17:08:34.935Z,3.47
2023-05-16T17:11:05.078Z,3.33
2023-05-16T17:13:34.607Z,3.05
2023-05-16T17:16:01.989Z,3.63
2023-05-16T17:18:29.990Z,2.10
2023-05-16T17:20:57.663Z,2.83
2023-05-16T17:23:24.720Z,3.33
2023-05-16T17:25:51.930Z,3.03
2023-05-16T17:28:19.047Z,3.70
2023-05-16T17:30:46.294Z,3.70
2023-05-16T17:33:13.365Z,3.55
2023-05-16T17:35:41.076Z,3.35
2023-05-16T17:38:09.890Z,3.10
2023-05-16T17:40:36.756Z,3.58
2023-05-16T17:43:04.096Z,4.00
2023-05-16T17:45:32.803Z,3.55
2023-05-16T17:48:01.563Z,3.28
2023-05-16T17:50:30.227Z,2.80
2023-05-16T17:52:57.334Z,4.10
2023-05-16T17:55:24.678Z,3.15
2023-05-16T17:57:51.561Z,3.00
2023-05-16T18:00:19.011Z,3.40
2023-05-16T18:02:45.891Z,3.17
2023-05-16T18:05:13.996Z,3.35
2023-05-16T18:07:41.078Z,3.60
2023-05-16T18:10:08.976Z,3.38
2023-05-16T18:12:37.870Z,2.58
2023-05-16T18:15:08.914Z,4.00
2023-05-16T18:17:35.738Z,2.95
2023-05-16T18:20:09.501Z,3.53
2023-05-16T18:22:40.175Z,3.08
2023-05-16T18:25:09.134Z,3.05
2023-05-16T18:27:36.737Z,3.10
2023-05-16T18:30:05.561Z,3.33
2023-05-16T18:32:32.628Z,2.60
2023-05-16T18:34:59.417Z,2.90
2023-05-16T18:37:26.329Z,2.95
2023-05-16T18:39:53.146Z,2.85
2023-05-16T18:42:19.917Z,2.47
2023-05-16T18:44:46.737Z,3.17
2023-05-16T18:47:15.790Z,3.10
2023-05-16T18:49:43.485Z,3.45
2023-05-16T18:52:11.251Z,2.85
2023-05-16T18:54:39.284Z,3.85
2023-05-16T18:57:06.600Z,3.45
2023-05-16T18:59:33.882Z,2.60
2023-05-16T19:02:00.951Z,2.72
2023-05-16T19:04:27.903Z,3.63
2023-05-16T19:06:56.293Z,2.30
2023-05-16T19:09:23.433Z,4.03
2023-05-16T19:11:50.423Z,2.60
2023-05-16T19:14:17.293Z,2.67
2023-05-16T19:16:44.050Z,2.90
2023-05-16T19:19:11.058Z,3.47
2023-05-16T19:21:39.002Z,2.67
2023-05-16T19:24:06.299Z,2.92
2023-05-16T19:26:33.065Z,3.13
2023-05-16T19:29:02.898Z,2.75
2023-05-16T19:31:29.745Z,3.42
2023-05-16T19:33:56.659Z,2.58
2023-05-16T19:36:23.822Z,3.80
2023-05-16T19:38:51.443Z,2.35
2023-05-16T19:41:18.221Z,3.65
2023-05-16T19:43:45.067Z,4.72
2023-05-16T19:46:11.997Z,5.18
2023-05-16T19:48:38.892Z,3.50
2023-05-16T19:51:05.890Z,4.20
2023-05-16T19:53:32.820Z,2.72
2023-05-16T19:55:59.585Z,3.00
2023-05-16T19:58:26.495Z,3.05
2023-05-16T20:00:53.911Z,3.00
2023-05-16T20:03:21.453Z,3.20
2023-05-16T20:05:48.215Z,3.45
2023-05-16T20:08:14.938Z,2.85
2023-05-16T20:10:41.765Z,2.60
2023-05-16T20:13:08.508Z,3.10
2023-05-16T20:15:35.561Z,2.90
2023-05-16T20:18:02.496Z,2.80
2023-05-16T20:20:29.978Z,2.58
2023-05-16T20:22:56.829Z,4.40
2023-05-16T20:25:23.643Z,2.60
2023-05-16T20:27:50.434Z,3.33
2023-05-16T20:30:17.198Z,3.08
2023-05-16T20:32:43.978Z,3.15
2023-05-16T20:35:11.368Z,2.92
2023-05-16T20:37:38.228Z,2.45
2023-05-16T20:40:06.366Z,2.70
2023-05-16T20:42:33.291Z,3.20
2023-05-16T20:45:01.198Z,2.70
2023-05-16T20:47:28.366Z,2.55
2023-05-16T20:49:55.077Z,3.10
2023-05-16T20:52:23.242Z,3.67
2023-05-16T20:54:50.478Z,3.42
2023-05-16T20:57:18.059Z,2.35
2023-05-16T20:59:44.894Z,3.35
2023-05-16T21:02:11.832Z,3.40
2023-05-16T21:04:38.806Z,3.40
2023-05-16T21:07:07.949Z,2.70
2023-05-16T21:09:37.035Z,2.40
2023-05-16T21:12:04.280Z,2.38
2023-05-16T21:14:31.003Z,2.53
2023-05-16T21:16:57.888Z,2.35
2023-05-16T21:19:24.804Z,3.60
2023-05-16T21:21:51.810Z,3.05
2023-05-16T21:24:18.531Z,3.20
2023-05-16T21:26:45.388Z,3.08
2023-05-16T21:29:12.095Z,3.85
2023-05-16T21:31:38.863Z,2.63
2023-05-16T21:34:08.432Z,3.00
2023-05-16T21:36:35.909Z,2.38
2023-05-16T21:39:02.987Z,2.70
2023-05-16T21:41:29.929Z,2.97
2023-05-16T21:43:57.168Z,2.33
2023-05-16T21:46:24.376Z,3.00
2023-05-16T21:48:51.222Z,2.63
2023-05-16T21:51:19.008Z,2.53
2023-05-16T21:53:48.630Z,2.92
2023-05-16T21:56:15.392Z,2.35
2023-05-16T21:58:42.490Z,3.13
2023-05-16T22:01:09.495Z,3.55
2023-05-16T22:03:36.379Z,2.55
2023-05-16T22:06:03.184Z,3.85
2023-05-16T22:08:29.945Z,3.30
2023-05-16T22:10:56.687Z,3.35
2023-05-16T22:13:23.467Z,3.17
2023-05-16T22:16:03.314Z,2.78
2023-05-16T22:18:31.475Z,3.22
2023-05-16T22:20:58.311Z,3.65
2023-05-16T22:23:25.189Z,3.40
2023-05-16T22:25:51.944Z,2.80
2023-05-16T22:28:18.656Z,3.33
2023-05-16T22:30:45.433Z,4.03
2023-05-16T22:33:12.222Z,2.20
2023-05-16T22:35:38.986Z,2.53
2023-05-16T22:38:05.896Z,2.65
2023-05-16T22:40:32.695Z,3.53
2023-05-16T22:42:59.461Z,2.75
2023-05-16T22:45:26.396Z,3.90
2023-05-16T22:47:53.298Z,3.15
2023-05-16T22:50:20.145Z,3.38
2023-05-16T22:52:46.948Z,4.53
2023-05-16T22:55:14.196Z,5.22
2023-05-16T22:57:41.072Z,5.60
2023-05-16T23:00:09.078Z,5.57
2023-05-16T23:02:36.024Z,5.53
2023-05-16T23:05:03.169Z,4.55
2023-05-16T23:07:30.589Z,4.75
2023-05-16T23:09:57.396Z,4.60
2023-05-16T23:12:25.342Z,4.80
2023-05-16T23:14:52.277Z,4.75
2023-05-16T23:17:19.116Z,4.72
2023-05-16T23:19:46.067Z,5.68
2023-05-16T23:22:12.856Z,4.70
2023-05-16T23:24:39.625Z,4.72
2023-05-16T23:27:06.445Z,5.40
2023-05-16T23:29:33.198Z,5.93
2023-05-16T23:32:00.687Z,5.47
2023-05-16T23:34:27.557Z,5.18
2023-05-16T23:36:54.388Z,5.47
2023-05-16T23:39:21.833Z,5.22
2023-05-16T23:41:48.873Z,5.32
2023-05-16T23:44:15.736Z,4.32
2023-05-16T23:46:42.559Z,5.55
2023-05-16T23:49:09.468Z,6.75
2023-05-16T23:51:55.561Z,4.95
2023-05-16T23:54:23.294Z,5.18
2023-05-16T23:56:50.188Z,4.57
2023-05-16T23:59:17.068Z,5.82
